默认 日期 大小 文件数 浏览量 最新下载 xml
the mummy磁力链接相关资源由用户搜索指令自动获取,结果来源于网络,本站不存储任何资料,亦不承担任何责任,请于24小时内删除,搜索到2543个磁力,用时31ms。
    {"Subtitles": {"English.srt": 72301, "English-Forced.srt": 1424}, "sample.avi": 1927168, "The.Mummy.2017.HDRip.XviD.AC3-EVO.avi": 1476823648, "The.Mummy.2017.HDRip.XviD.AC3-EVO.nfo": 756}
创建时间: 2018-11-12 21:28:51 大小:1.38 GB 文件数量:5 热度:6 最近下载:2023-04-14 09:10:05
    {"Subs": {"2_Eng.srt": 7888, "3_Eng.srt": 74344}, "RARBG.txt": 30, "The.Mummy.Tomb.Of.The.Dragon.Emperor.2008.BRRip.XviD.MP3-XVID.avi": 1509499546}
创建时间: 2018-11-13 00:35:11 大小:1.41 GB 文件数量:4 热度:10 最近下载:2025-01-28 20:02:02
    {"The Mummy (2017) PL.1080p.BDRip.XViD.AC3-joanna668.avi": 4225572962}
创建时间: 2018-11-13 05:17:46 大小:3.94 GB 文件数量:1 热度:6 最近下载:2024-12-21 07:39:03
    {"AgusiQ Zaprasza.url": 125, "AgusiQ-Torrents The Best.avi": 6836184, "POMOZMY JEJ WYJSC Z DOMU!!!.url": 119, "The.Mummy.2017.PL.720p.BDrip.XviD.DD5.1-MAXX.avi": 3432904704, "Torrent downloaded from agusiq-torrents.pl upload by MAXX.txt": 4031}
创建时间: 2018-11-13 05:52:14 大小:3.2 GB 文件数量:5 热度:7 最近下载:2023-04-14 12:00:17
    {"NH.png": 244622, "info.txt": 355, "Torrent Downloaded from icv-crew.org.txt": 36, "The.Mummy.2017 WEBRip R6 1080p Ita Eng x265-NAHOM.mkv": 1377569392}
创建时间: 2018-11-13 09:13:04 大小:1.28 GB 文件数量:4 热度:5 最近下载:2023-04-14 13:40:03
    {"alt-torrent.com.mp4": 4001994, "www.alt-torrent.com.txt": 266, "POR FAVOR!.....COMPARTAN!.txt": 117, "The Mummy (2017) WEBDL LAT - ZeiZ.jpg": 63258, "The Mummy (2017) WEBDL LAT - ZeiZ.mkv": 4339767000}
创建时间: 2018-11-13 09:48:09 大小:4.05 GB 文件数量:5 热度:5 最近下载:2023-04-14 14:00:18
    {"The.Mummy.2017.HDRip.1.46Gb.MegaPeer.avi": 1568864256, "The.Mummy.2017.HDRip.1.46Gb.MegaPeer.srt": 2558}
创建时间: 2018-11-13 10:28:08 大小:1.46 GB 文件数量:2 热度:5 最近下载:2023-04-14 14:20:05
    {"NFO.txt": 1284, "The.Mummy.2017.1080p.KORSUB.HDRip.x264.AAC2.0-STUTTERSHIT.mp4": 4374931811}
创建时间: 2018-11-13 14:49:01 大小:4.07 GB 文件数量:2 热度:7 最近下载:2023-04-14 15:40:08
    ... English.srt": 77978}, "Screenshots": {"The.Mummy.1999.1080p.BluRay.x264.AC3 ... (1).png": 1836434, "The.Mummy.1999.1080p.BluRay.x264.AC3 ... (10).png": 1203172, "The.Mummy.1999.1080p.BluRay.x264.AC3 ... (11).png": 1161763, "The.Mummy.1999.1080p.BluRay.x264.AC3 ...
创建时间: 2018-11-13 15:23:00 大小:4.05 GB 文件数量:17 热度:10 最近下载:2024-09-24 03:34:02
    {"Abbott and Costello Meet the Mummy.avi": 1459355648}
创建时间: 2018-11-13 18:40:34 大小:1.36 GB 文件数量:1 热度:5 最近下载:2025-02-12 11:21:02
    ... ].url": 114, "木乃伊.The.Mummy.1999.BD1080P.X264.AC3.Mandarin ... .mkv": 6818877492, "木乃伊.The.Mummy.1999.BD1080P.X264.AC3.Mandarin ...
创建时间: 2018-11-13 19:36:29 大小:6.35 GB 文件数量:5 热度:216 最近下载:2025-10-10 13:38:03
    {"The.Mummy.2017.PROPER.MULTI.1080p.WEB-DL.DD5.1.H264-ShowFr.mkv": 4444312614, "The.Mummy.2017.PROPER.MULTI.1080p.WEB-DL.DD5.1.H264-ShowFr.nfo": 9100}
创建时间: 2018-11-13 21:03:05 大小:4.14 GB 文件数量:2 热度:7 最近下载:2023-04-14 20:20:04
    {"setup.exe": 635470, "setup-1.bin": 139984911}
创建时间: 2018-11-13 22:01:30 大小:134.11 MB 文件数量:2 热度:5 最近下载:2023-04-14 22:40:09
    {"INFO.txt": 2560, "The.Mummy.2017.PL.480p.BDRip.XviD.AC3-KRT.avi": 2029262848, "ZAPRASZAM patriota123 -DEVIL-TORRENTS.PL..html": 585, "TANIE NIEZAWODNE KONTO SHELL - SPEEDSHELL.PL.jpg": 229004}
创建时间: 2018-11-14 02:57:13 大小:1.89 GB 文件数量:4 热度:6 最近下载:2023-04-15 01:00:17
    ... 效中英字幕.The.Mummy.2017.BD1080P.X264.DTS-HD ...
创建时间: 2018-11-14 03:05:38 大小:13.84 GB 文件数量:4 热度:153 最近下载:2025-09-27 19:06:01
    {"INFO!!!!!!!!!!.TXT": 1827, "The.Mummy.2017.PL.BDRip.XviD-KiT.avi": 733671424, "Best-Torrenty.INFO ZAPRASZA!!!!!!!!!!!!!.url": 113}
创建时间: 2018-11-14 04:06:14 大小:699.69 MB 文件数量:3 热度:10 最近下载:2025-06-13 04:32:01
    {"Sample.mkv": 18593375, "Torrent Downloaded From 1337x.to.txt": 312, "Torrent downloaded from www.DNoid.me - Demonoid.txt": 56, "The Mummy 2017 720p BluRay Hindi English DD 5.1 - LOKI - M2Tv.mkv": 1269674370}
创建时间: 2018-11-14 05:14:41 大小:1.2 GB 文件数量:4 热度:6 最近下载:2023-04-15 02:20:04
    {"Sample": {"Sample-TMBSM10.mkv": 938712885}, "RARBG.txt": 31, "The.Mummy.2017.2160p.BluRay.x265.10bit.SDR.DTS-HD.MA.TrueHD.7.1.Atmos-SWTYBLZ.mkv": 57474580139}
创建时间: 2018-11-14 10:50:21 大小:54.4 GB 文件数量:3 热度:26 最近下载:2025-03-15 21:44:03
    {"Subs": {"1_English.srt": 91776, "The.Mummy.2017.1080p.BluRay.x264-[YTS.PE].idx": 123369, "The.Mummy.2017.1080p.BluRay.x264-[YTS.PE].sub": 11579392}, "WWW.YTS.PE.jpg": 36475, "The.Mummy.2017.1080p.BluRay.x264-[YTS.PE].mp4": 1767452467}
创建时间: 2018-11-14 10:51:58 大小:1.66 GB 文件数量:5 热度:7 最近下载:2023-04-15 03:10:05
    {"RARBG.txt": 31, "The.Mummy.2017.KORSUB.HDRip.XviD.MP3-STUTTERSHIT.avi": 1494295730}
创建时间: 2018-11-14 11:52:02 大小:1.39 GB 文件数量:2 热度:8 最近下载:2024-12-12 17:20:01